^^
Your Local Weather - Clay, NY Station Historical Data
Daily Summary for April 14, 2017 Units:  English    Metric   Both
« Previous Day
Next Day »
Daily Weekly Monthly Yearly Custom
  High: Low: Average:
Temperature: 62.2 °F 27.7 °F 45.7 °F
Dew Point: 34.0 °F 19.7 °F 26.7 °F
Humidity: 89% 23% 53%
Wind Speed: 5.0mph 0.0mph 1.2mph
Wind Gust: 10.0mph - -
Wind- - South
Pressure: 30.43 in 30.31 in -
Precipitation: 0.00 in    
Historical Graphs
 
 
Tabular Data for April 14, 2017
Time Temperature Dew Point Pressure Wind Wind Speed Wind Gust Humidity Rainfall Rate (Hourly) solar
00:00 33.7 °F 26.6 °F 30.37 in Calm     75% 0.00 in 0 W/m2
00:05 33.5 °F 26.4 °F 30.37 in Calm     75% 0.00 in 0 W/m2
00:12 33.4 °F 26.3 °F 30.37 in Calm     75% 0.00 in 0 W/m2
00:18 33.3 °F 26.2 °F 30.37 in Calm     75% 0.00 in 0 W/m2
00:24 33.1 °F 26.4 °F 30.38 in Calm     76% 0.00 in 0 W/m2
00:29 33.0 °F 26.3 °F 30.38 in Calm     76% 0.00 in 0 W/m2
00:36 32.8 °F 26.1 °F 30.38 in Calm     76% 0.00 in 0 W/m2
00:42 32.6 °F 26.2 °F 30.38 in Calm     77% 0.00 in 0 W/m2
00:48 32.3 °F 26.2 °F 30.38 in Calm     78% 0.00 in 0 W/m2
00:54 32.1 °F 26.3 °F 30.39 in Calm     79% 0.00 in 0 W/m2
01:00 31.9 °F 26.1 °F 30.39 in Calm     79% 0.00 in 0 W/m2
01:06 31.8 °F 26.0 °F 30.39 in Calm     79% 0.00 in 0 W/m2
01:12 31.7 °F 26.2 °F 30.39 in Calm     80% 0.00 in 0 W/m2
01:18 31.6 °F 26.1 °F 30.39 in Calm     80% 0.00 in 0 W/m2
01:23 31.4 °F 25.9 °F 30.39 in Calm     80% 0.00 in 0 W/m2
01:30 31.3 °F 25.8 °F 30.39 in Calm     80% 0.00 in 0 W/m2
01:36 31.2 °F 25.7 °F 30.39 in Calm     80% 0.00 in 0 W/m2
01:42 31.1 °F 25.7 °F 30.39 in Calm     80% 0.00 in 0 W/m2
01:48 31.0 °F 25.9 °F 30.39 in Calm     81% 0.00 in 0 W/m2
01:54 31.0 °F 25.9 °F 30.39 in Calm     81% 0.00 in 0 W/m2
03:26 29.9 °F 25.7 °F 30.39 in Calm     84% 0.00 in 0 W/m2
03:36 29.8 °F 25.6 °F 30.38 in Calm     84% 0.00 in 0 W/m2
03:42 30.1 °F 26.1 °F 30.38 in Calm     85% 0.00 in 0 W/m2
03:48 30.2 °F 26.5 °F 30.38 in Calm     86% 0.00 in 0 W/m2
03:53 30.1 °F 26.4 °F 30.39 in Calm     86% 0.00 in 0 W/m2
03:59 29.8 °F 25.8 °F 30.39 in Calm     85% 0.00 in 0 W/m2
04:06 29.6 °F 25.9 °F 30.39 in Calm     86% 0.00 in 0 W/m2
04:12 29.4 °F 25.7 °F 30.39 in Calm     86% 0.00 in 0 W/m2
04:18 29.5 °F 25.8 °F 30.39 in Calm     86% 0.00 in 0 W/m2
04:24 29.5 °F 25.8 °F 30.39 in Calm     86% 0.00 in 0 W/m2
04:29 29.7 °F 26.0 °F 30.39 in Calm     86% 0.00 in 0 W/m2
04:35 29.6 °F 25.9 °F 30.39 in Calm     86% 0.00 in 0 W/m2
04:42 29.6 °F 25.9 °F 30.39 in Calm     86% 0.00 in 0 W/m2
04:48 29.5 °F 25.8 °F 30.39 in Calm     86% 0.00 in 0 W/m2
04:53 29.6 °F 26.2 °F 30.39 in Calm     87% 0.00 in 0 W/m2
04:59 29.6 °F 26.2 °F 30.39 in Calm     87% 0.00 in 0 W/m2
05:05 29.3 °F 25.9 °F 30.39 in Calm     87% 0.00 in 0 W/m2
05:12 29.0 °F 25.6 °F 30.39 in Calm     87% 0.00 in 0 W/m2
05:18 28.9 °F 25.5 °F 30.39 in Calm     87% 0.00 in 0 W/m2
05:23 28.7 °F 25.3 °F 30.39 in Calm     87% 0.00 in 0 W/m2
05:29 28.5 °F 25.4 °F 30.39 in Calm     88% 0.00 in 0 W/m2
05:35 28.3 °F 25.2 °F 30.39 in Calm     88% 0.00 in 0 W/m2
05:42 28.2 °F 25.1 °F 30.39 in Calm     88% 0.00 in 0 W/m2
05:48 28.0 °F 24.9 °F 30.39 in Calm     88% 0.00 in 0 W/m2
05:53 27.8 °F 24.7 °F 30.40 in Calm     88% 0.00 in 0 W/m2
05:59 27.7 °F 24.6 °F 30.40 in Calm     88% 0.00 in 0 W/m2
06:06 27.9 °F 24.8 °F 30.40 in Calm     88% 0.00 in 0 W/m2
06:12 28.1 °F 25.0 °F 30.40 in Calm     88% 0.00 in 0 W/m2
06:18 28.5 °F 25.4 °F 30.41 in Calm     88% 0.00 in 0 W/m2
06:23 28.6 °F 25.5 °F 30.41 in Calm     88% 0.00 in 0 W/m2
06:29 28.7 °F 25.6 °F 30.41 in Calm     88% 0.00 in 7 W/m2
06:35 28.8 °F 25.7 °F 30.41 in Calm     88% 0.00 in 9 W/m2
06:42 28.5 °F 25.4 °F 30.41 in Calm     88% 0.00 in 12 W/m2
06:48 28.3 °F 25.2 °F 30.41 in Calm     88% 0.00 in 16 W/m2
06:53 28.3 °F 25.2 °F 30.41 in Calm     88% 0.00 in 19 W/m2
06:59 28.3 °F 25.2 °F 30.41 in Calm     88% 0.00 in 32 W/m2
07:05 28.6 °F 25.5 °F 30.42 in Calm     88% 0.00 in 65 W/m2
07:12 29.5 °F 26.7 °F 30.41 in Calm     89% 0.00 in 56 W/m2
07:18 29.9 °F 27.1 °F 30.42 in Calm     89% 0.00 in 44 W/m2
07:24 30.4 °F 27.3 °F 30.42 in Calm     88% 0.00 in 30 W/m2
07:30 30.8 °F 27.4 °F 30.42 in Calm     87% 0.00 in 35 W/m2
07:35 31.4 °F 27.7 °F 30.42 in Calm     86% 0.00 in 139 W/m2
07:42 33.2 °F 28.9 °F 30.42 in Calm     84% 0.00 in 199 W/m2
07:48 35.2 °F 29.6 °F 30.42 in Calm     80% 0.00 in 218 W/m2
07:53 36.6 °F 28.4 °F 30.42 in Calm     72% 0.00 in 234 W/m2
07:59 37.5 °F 28.6 °F 30.42 in Calm     70% 0.00 in 232 W/m2
08:05 38.5 °F 28.9 °F 30.42 in Calm     68% 0.00 in 206 W/m2
08:12 39.2 °F 28.8 °F 30.42 in Calm     66% 0.00 in 237 W/m2
08:16 39.3 °F 28.1 °F 30.42 in Calm     64% 0.00 in 248 W/m2
08:22 39.6 °F 28.4 °F 30.42 in Calm     64% 0.00 in 292 W/m2
08:28 40.0 °F 28.8 °F 30.42 in SE 1.0 mph 1.0 mph 64% 0.00 in 297 W/m2
08:33 40.4 °F 29.2 °F 30.42 in ESE 1.0 mph 2.0 mph 64% 0.00 in 255 W/m2
08:39 40.9 °F 28.9 °F 30.42 in ENE 1.0 mph 1.0 mph 62% 0.00 in 281 W/m2
08:45 41.2 °F 28.4 °F 30.42 in ENE 2.0 mph 2.0 mph 60% 0.00 in 250 W/m2
08:52 41.9 °F 29.4 °F 30.42 in ENE 1.0 mph 1.0 mph 61% 0.00 in 352 W/m2
08:58 42.4 °F 29.1 °F 30.42 in ENE 1.0 mph 1.0 mph 59% 0.00 in 262 W/m2
09:03 42.7 °F 28.5 °F 30.43 in NE 2.0 mph 2.0 mph 57% 0.00 in 373 W/m2
09:10 43.6 °F 30.2 °F 30.43 in ESE 1.0 mph 3.0 mph 59% 0.00 in 355 W/m2
09:15 44.4 °F 31.0 °F 30.43 in SSE 1.0 mph 3.0 mph 59% 0.00 in 413 W/m2
09:22 45.3 °F 31.0 °F 30.43 in SE 1.0 mph 3.0 mph 57% 0.00 in 496 W/m2
09:28 46.1 °F 30.8 °F 30.42 in SE 1.0 mph 3.0 mph 55% 0.00 in 533 W/m2
09:34 46.8 °F 31.0 °F 30.42 in Calm   1.0 mph 54% 0.00 in 548 W/m2
09:39 47.1 °F 30.4 °F 30.43 in South 1.0 mph 3.0 mph 52% 0.00 in 570 W/m2
09:45 47.4 °F 28.7 °F 30.43 in South 2.0 mph 3.0 mph 48% 0.00 in 585 W/m2
09:52 48.3 °F 29.5 °F 30.43 in South 1.0 mph 1.0 mph 48% 0.00 in 603 W/m2
09:58 49.7 °F 32.3 °F 30.43 in Calm   1.0 mph 51% 0.00 in 622 W/m2
10:03 50.2 °F 28.5 °F 30.43 in ESE 1.0 mph 4.0 mph 43% 0.00 in 638 W/m2
10:09 50.4 °F 28.1 °F 30.43 in ESE 1.0 mph 3.0 mph 42% 0.00 in 656 W/m2
10:15 51.3 °F 31.7 °F 30.43 in East 1.0 mph 3.0 mph 47% 0.00 in 673 W/m2
10:22 51.0 °F 29.3 °F 30.43 in SE 1.0 mph 3.0 mph 43% 0.00 in 689 W/m2
10:28 51.5 °F 30.8 °F 30.43 in SE 1.0 mph 3.0 mph 45% 0.00 in 707 W/m2
10:33 51.8 °F 30.6 °F 30.42 in SE 1.0 mph 3.0 mph 44% 0.00 in 721 W/m2
10:39 52.8 °F 31.5 °F 30.42 in SE 1.0 mph 1.0 mph 44% 0.00 in 731 W/m2
10:45 52.8 °F 29.7 °F 30.42 in East 1.0 mph 1.0 mph 41% 0.00 in 749 W/m2
10:52 53.4 °F 29.0 °F 30.42 in ENE 2.0 mph 3.0 mph 39% 0.00 in 761 W/m2
10:58 53.3 °F 27.7 °F 30.42 in NE 2.0 mph 6.0 mph 37% 0.00 in 777 W/m2
11:03 53.7 °F 28.7 °F 30.42 in NE 2.0 mph 3.0 mph 38% 0.00 in 784 W/m2
11:09 54.6 °F 30.1 °F 30.42 in NNE 1.0 mph 1.0 mph 39% 0.00 in 796 W/m2
11:15 54.0 °F 31.4 °F 30.42 in East 1.0 mph 2.0 mph 42% 0.00 in 809 W/m2
11:22 54.3 °F 29.8 °F 30.42 in NNW 2.0 mph 4.0 mph 39% 0.00 in 814 W/m2
11:28 54.8 °F 30.9 °F 30.42 in ENE 3.0 mph 5.0 mph 40% 0.00 in 812 W/m2
11:33 54.6 °F 29.5 °F 30.42 in North 3.0 mph 4.0 mph 38% 0.00 in 821 W/m2
11:39 55.0 °F 29.2 °F 30.42 in NNW 2.0 mph 2.0 mph 37% 0.00 in 831 W/m2
11:45 54.8 °F 29.7 °F 30.41 in SE 1.0 mph 2.0 mph 38% 0.00 in 837 W/m2
11:52 53.9 °F 26.1 °F 30.41 in ENE 3.0 mph 3.0 mph 34% 0.00 in 853 W/m2
11:58 54.2 °F 27.1 °F 30.41 in SW 2.0 mph 3.0 mph 35% 0.00 in 860 W/m2
12:03 55.6 °F 28.4 °F 30.41 in WSW 1.0 mph 2.0 mph 35% 0.00 in 861 W/m2
12:09 56.2 °F 26.7 °F 30.41 in NNE 1.0 mph 3.0 mph 32% 0.00 in 879 W/m2
12:15 56.2 °F 26.7 °F 30.40 in North 2.0 mph 4.0 mph 32% 0.00 in 877 W/m2
12:22 56.2 °F 28.2 °F 30.40 in North 2.0 mph 2.0 mph 34% 0.00 in 882 W/m2
12:28 57.5 °F 34.0 °F 30.39 in North 1.0 mph 2.0 mph 41% 0.00 in 886 W/m2
12:33 56.1 °F 25.8 °F 30.39 in ENE 2.0 mph 3.0 mph 31% 0.00 in 889 W/m2
12:45 56.8 °F 28.7 °F 30.39 in NNE 1.0 mph 5.0 mph 34% 0.00 in 888 W/m2
12:52 56.2 °F 27.4 °F 30.39 in ENE 2.0 mph 2.0 mph 33% 0.00 in 884 W/m2
12:58 56.6 °F 30.6 °F 30.39 in NNW 3.0 mph 8.0 mph 37% 0.00 in 853 W/m2
13:03 56.9 °F 25.7 °F 30.39 in NNE 4.0 mph 5.0 mph 30% 0.00 in 888 W/m2
13:09 57.1 °F 23.4 °F 30.39 in NNW 3.0 mph 3.0 mph 27% 0.00 in 881 W/m2
13:15 56.8 °F 24.8 °F 30.38 in NE 3.0 mph 5.0 mph 29% 0.00 in 886 W/m2
13:22 56.7 °F 23.9 °F 30.38 in ENE 3.0 mph 4.0 mph 28% 0.00 in 895 W/m2
13:28 57.2 °F 19.7 °F 30.38 in WNW 3.0 mph 5.0 mph 23% 0.00 in 893 W/m2
13:36 57.9 °F 25.0 °F 30.38 in NW 3.0 mph 4.0 mph 28% 0.00 in 870 W/m2
13:42 57.7 °F 22.1 °F 30.37 in East 2.0 mph 4.0 mph 25% 0.00 in 881 W/m2
13:48 57.9 °F 28.2 °F 30.37 in SSE 2.0 mph 4.0 mph 32% 0.00 in 868 W/m2
13:53 57.9 °F 24.1 °F 30.37 in ENE 3.0 mph 5.0 mph 27% 0.00 in 874 W/m2
13:59 57.5 °F 22.8 °F 30.37 in East 3.0 mph 3.0 mph 26% 0.00 in 877 W/m2
14:06 57.8 °F 28.1 °F 30.37 in NNW 1.0 mph 3.0 mph 32% 0.00 in 868 W/m2
14:12 58.8 °F 25.7 °F 30.37 in NNE 2.0 mph 3.0 mph 28% 0.00 in 863 W/m2
14:18 59.1 °F 26.0 °F 30.36 in NNE 2.0 mph 3.0 mph 28% 0.00 in 854 W/m2
14:24 58.9 °F 24.9 °F 30.36 in NW 3.0 mph 4.0 mph 27% 0.00 in 846 W/m2
14:29 58.8 °F 26.6 °F 30.36 in ENE 3.0 mph 4.0 mph 29% 0.00 in 837 W/m2
14:35 58.8 °F 24.9 °F 30.36 in ENE 2.0 mph 4.0 mph 27% 0.00 in 830 W/m2
14:42 59.1 °F 26.0 °F 30.35 in SSE 2.0 mph 5.0 mph 28% 0.00 in 821 W/m2
14:48 58.3 °F 22.6 °F 30.35 in ESE 4.0 mph 5.0 mph 25% 0.00 in 812 W/m2
14:53 59.3 °F 30.2 °F 30.34 in SSE 2.0 mph 4.0 mph 33% 0.00 in 803 W/m2
14:59 60.3 °F 26.1 °F 30.34 in WNW 2.0 mph 4.0 mph 27% 0.00 in 793 W/m2
15:05 60.4 °F 27.1 °F 30.34 in WSW 3.0 mph 6.0 mph 28% 0.00 in 782 W/m2
15:12 60.1 °F 26.9 °F 30.34 in WNW 3.0 mph 3.0 mph 28% 0.00 in 770 W/m2
15:18 60.7 °F 31.4 °F 30.34 in SW 2.0 mph 3.0 mph 33% 0.00 in 758 W/m2
15:23 60.4 °F 27.1 °F 30.34 in NW 2.0 mph 7.0 mph 28% 0.00 in 745 W/m2
15:29 60.5 °F 23.5 °F 30.34 in NNE 2.0 mph 3.0 mph 24% 0.00 in 733 W/m2
15:36 59.2 °F 23.4 °F 30.34 in ENE 2.0 mph 3.0 mph 25% 0.00 in 719 W/m2
15:42 59.7 °F 24.7 °F 30.33 in East 1.0 mph 2.0 mph 26% 0.00 in 708 W/m2
15:48 60.1 °F 23.1 °F 30.33 in NNE 2.0 mph 5.0 mph 24% 0.00 in 693 W/m2
15:53 60.6 °F 24.5 °F 30.33 in WSW 3.0 mph 3.0 mph 25% 0.00 in 677 W/m2
16:00 61.5 °F 24.3 °F 30.33 in SSE 2.0 mph 5.0 mph 24% 0.00 in 661 W/m2
16:06 60.9 °F 25.7 °F 30.33 in West 2.0 mph 5.0 mph 26% 0.00 in 647 W/m2
16:12 61.6 °F 27.3 °F 30.33 in NW 2.0 mph 3.0 mph 27% 0.00 in 629 W/m2
16:18 61.4 °F 26.2 °F 30.33 in SW 2.0 mph 3.0 mph 26% 0.00 in 612 W/m2
16:23 62.2 °F 28.7 °F 30.32 in NW 2.0 mph 5.0 mph 28% 0.00 in 596 W/m2
16:29 61.6 °F 27.3 °F 30.32 in WSW 2.0 mph 2.0 mph 27% 0.00 in 580 W/m2
16:35 61.6 °F 24.4 °F 30.32 in NW 1.0 mph 2.0 mph 24% 0.00 in 564 W/m2
16:42 60.8 °F 26.6 °F 30.32 in WNW 3.0 mph 5.0 mph 27% 0.00 in 547 W/m2
16:48 60.5 °F 27.2 °F 30.32 in NNW 4.0 mph 6.0 mph 28% 0.00 in 526 W/m2
16:53 60.4 °F 26.2 °F 30.31 in NW 4.0 mph 10.0 mph 27% 0.00 in 512 W/m2
17:00 60.2 °F 27.8 °F 30.31 in NNW 4.0 mph 4.0 mph 29% 0.00 in 492 W/m2
17:05 60.1 °F 26.9 °F 30.31 in WNW 3.0 mph 7.0 mph 28% 0.00 in 473 W/m2
17:12 60.7 °F 27.4 °F 30.31 in WNW 3.0 mph 3.0 mph 28% 0.00 in 454 W/m2
17:18 60.6 °F 25.5 °F 30.31 in NNW 3.0 mph 4.0 mph 26% 0.00 in 436 W/m2
17:23 60.4 °F 26.2 °F 30.31 in NNW 4.0 mph 4.0 mph 27% 0.00 in 420 W/m2
17:30 60.1 °F 26.0 °F 30.31 in NW 3.0 mph 5.0 mph 27% 0.00 in 401 W/m2
17:35 59.9 °F 24.9 °F 30.31 in NW 4.0 mph 5.0 mph 26% 0.00 in 339 W/m2
17:42 59.2 °F 27.7 °F 30.31 in NNW 5.0 mph 5.0 mph 30% 0.00 in 295 W/m2
17:48 59.1 °F 24.2 °F 30.31 in North 4.0 mph 6.0 mph 26% 0.00 in 237 W/m2
17:59 59.2 °F 23.4 °F 30.31 in North 4.0 mph 6.0 mph 25% 0.00 in 271 W/m2
18:05 59.1 °F 25.1 °F 30.31 in NNW 4.0 mph 6.0 mph 27% 0.00 in 223 W/m2
18:12 58.9 °F 24.9 °F 30.31 in North 4.0 mph 4.0 mph 27% 0.00 in 125 W/m2
18:18 58.9 °F 26.7 °F 30.31 in NW 3.0 mph 4.0 mph 29% 0.00 in 199 W/m2
18:23 58.8 °F 24.9 °F 30.31 in NNW 3.0 mph 7.0 mph 27% 0.00 in 141 W/m2
18:30 58.5 °F 24.6 °F 30.31 in NW 4.0 mph 4.0 mph 27% 0.00 in 102 W/m2
18:35 58.3 °F 23.5 °F 30.31 in North 4.0 mph 4.0 mph 26% 0.00 in 162 W/m2
18:42 58.2 °F 26.1 °F 30.31 in NNW 3.0 mph 3.0 mph 29% 0.00 in 88 W/m2
18:48 57.8 °F 24.9 °F 30.31 in North 3.0 mph 3.0 mph 28% 0.00 in 84 W/m2
18:54 57.2 °F 23.5 °F 30.31 in NNW 4.0 mph 5.0 mph 27% 0.00 in 95 W/m2
18:59 56.9 °F 24.1 °F 30.31 in North 5.0 mph 5.0 mph 28% 0.00 in 84 W/m2
19:05 56.2 °F 24.3 °F 30.31 in North 4.0 mph 5.0 mph 29% 0.00 in 28 W/m2
19:12 55.7 °F 24.7 °F 30.31 in NNW 3.0 mph 4.0 mph 30% 0.00 in 25 W/m2
19:18 55.2 °F 23.5 °F 30.31 in NNW 3.0 mph 4.0 mph 29% 0.00 in 21 W/m2
19:23 54.9 °F 23.2 °F 30.31 in NNW 2.0 mph 3.0 mph 29% 0.00 in 19 W/m2
19:29 54.4 °F 23.6 °F 30.31 in NNW 2.0 mph 4.0 mph 30% 0.00 in 16 W/m2
19:35 54.2 °F 22.6 °F 30.31 in NNW 3.0 mph 5.0 mph 29% 0.00 in 12 W/m2
19:42 53.9 °F 23.1 °F 30.32 in NNW 2.0 mph 3.0 mph 30% 0.00 in 9 W/m2
19:48 53.5 °F 22.0 °F 30.32 in North 2.0 mph 3.0 mph 29% 0.00 in 5 W/m2
19:53 53.2 °F 20.9 °F 30.32 in North 2.0 mph 3.0 mph 28% 0.00 in 0 W/m2
20:05 52.3 °F 20.1 °F 30.31 in North 2.0 mph 4.0 mph 28% 0.00 in 0 W/m2
20:12 51.9 °F 21.4 °F 30.32 in North 1.0 mph 2.0 mph 30% 0.00 in 0 W/m2
20:18 51.5 °F 23.3 °F 30.32 in North 1.0 mph 2.0 mph 33% 0.00 in 0 W/m2
20:23 51.0 °F 25.0 °F 30.32 in Calm   1.0 mph 36% 0.00 in 0 W/m2
20:29 50.5 °F 25.8 °F 30.32 in Calm     38% 0.00 in 0 W/m2
20:35 49.9 °F 26.5 °F 30.33 in Calm     40% 0.00 in 0 W/m2
20:42 49.2 °F 24.6 °F 30.32 in Calm     38% 0.00 in 0 W/m2
20:48 48.5 °F 28.6 °F 30.32 in Calm     46% 0.00 in 0 W/m2
20:54 47.9 °F 26.5 °F 30.33 in Calm     43% 0.00 in 0 W/m2
20:59 47.3 °F 24.8 °F 30.33 in Calm     41% 0.00 in 0 W/m2
21:05 46.5 °F 29.8 °F 30.32 in Calm     52% 0.00 in 0 W/m2
21:12 45.8 °F 27.7 °F 30.33 in Calm     49% 0.00 in 0 W/m2
21:18 45.4 °F 27.8 °F 30.33 in Calm     50% 0.00 in 0 W/m2
21:23 45.1 °F 27.6 °F 30.33 in Calm     50% 0.00 in 0 W/m2
21:29 44.5 °F 28.4 °F 30.33 in Calm     53% 0.00 in 0 W/m2
21:35 44.1 °F 28.0 °F 30.33 in Calm     53% 0.00 in 0 W/m2
21:42 43.8 °F 28.2 °F 30.33 in Calm     54% 0.00 in 0 W/m2
21:48 43.6 °F 27.1 °F 30.33 in Calm     52% 0.00 in 0 W/m2
21:53 43.2 °F 26.7 °F 30.32 in Calm     52% 0.00 in 0 W/m2
21:59 42.9 °F 27.4 °F 30.32 in Calm     54% 0.00 in 0 W/m2
22:05 42.6 °F 27.1 °F 30.32 in Calm     54% 0.00 in 0 W/m2
22:12 42.1 °F 27.5 °F 30.32 in Calm     56% 0.00 in 0 W/m2
22:18 41.7 °F 27.1 °F 30.32 in Calm     56% 0.00 in 0 W/m2
22:29 41.1 °F 27.4 °F 30.32 in Calm     58% 0.00 in 0 W/m2
22:35 40.8 °F 26.7 °F 30.31 in Calm     57% 0.00 in 0 W/m2
22:41 40.5 °F 26.4 °F 30.31 in Calm     57% 0.00 in 0 W/m2
22:48 40.3 °F 27.5 °F 30.32 in Calm     60% 0.00 in 0 W/m2
22:53 40.0 °F 28.0 °F 30.32 in Calm     62% 0.00 in 0 W/m2
23:00 39.7 °F 28.1 °F 30.32 in Calm     63% 0.00 in 0 W/m2
23:05 39.4 °F 28.2 °F 30.31 in Calm     64% 0.00 in 0 W/m2
23:12 39.1 °F 27.6 °F 30.31 in Calm     63% 0.00 in 0 W/m2
23:18 39.1 °F 26.4 °F 30.31 in Calm     60% 0.00 in 0 W/m2
23:24 39.2 °F 29.2 °F 30.31 in Calm     67% 0.00 in 0 W/m2
23:29 39.3 °F 30.3 °F 30.31 in Calm     70% 0.00 in 0 W/m2
23:35 39.3 °F 30.7 °F 30.31 in Calm     71% 0.00 in 0 W/m2
23:42 39.0 °F 30.4 °F 30.31 in Calm     71% 0.00 in 0 W/m2
23:48 38.7 °F 30.1 °F 30.31 in Calm     71% 0.00 in 0 W/m2
23:54 38.6 °F 30.7 °F 30.31 in Calm     73% 0.00 in 0 W/m2
23:59 38.6 °F 31.0 °F 30.31 in Calm     74% 0.00 in 0 W/m2
Country Meadow, Clay, NY, USA
Compliments of Weather Underground - 2 mb